createdAt,value
2018-04-13T00:01:49.174Z,7.20
2018-04-13T00:04:16.432Z,9.03
2018-04-13T00:06:43.695Z,7.60
2018-04-13T00:09:10.963Z,7.37
2018-04-13T00:11:38.239Z,10.83
2018-04-13T00:14:05.498Z,10.10
2018-04-13T00:16:32.779Z,10.73
2018-04-13T00:19:00.066Z,10.27
2018-04-13T00:21:27.347Z,8.20
2018-04-13T00:23:54.587Z,10.87
2018-04-13T00:26:21.866Z,8.73
2018-04-13T00:28:49.121Z,14.03
2018-04-13T00:31:16.410Z,8.17
2018-04-13T00:33:43.672Z,10.53
2018-04-13T00:36:10.938Z,14.33
2018-04-13T00:38:38.242Z,12.47
2018-04-13T00:41:05.496Z,9.83
2018-04-13T00:43:32.775Z,13.80
2018-04-13T00:46:00.048Z,11.03
2018-04-13T00:48:27.323Z,10.30
2018-04-13T00:50:54.592Z,11.43
2018-04-13T00:53:27.732Z,11.70
2018-04-13T00:55:54.991Z,13.73
2018-04-13T00:58:22.275Z,10.27
2018-04-13T01:00:49.530Z,10.13
2018-04-13T01:03:16.814Z,15.87
2018-04-13T01:05:44.080Z,10.60
2018-04-13T01:08:11.346Z,11.70
2018-04-13T01:10:38.602Z,11.40
2018-04-13T01:13:05.876Z,14.10
2018-04-13T01:15:33.147Z,11.07
2018-04-13T01:18:00.411Z,11.13
2018-04-13T01:20:27.670Z,11.20
2018-04-13T01:22:54.950Z,10.83
2018-04-13T01:25:22.199Z,12.23
2018-04-13T01:27:49.459Z,11.80
2018-04-13T01:30:16.737Z,9.83
2018-04-13T01:32:43.987Z,11.50
2018-04-13T01:35:11.283Z,12.27
2018-04-13T01:37:38.568Z,11.53
2018-04-13T01:40:05.843Z,13.63
2018-04-13T01:42:33.107Z,13.67
2018-04-13T01:45:00.384Z,13.90
2018-04-13T01:47:27.651Z,11.70
2018-04-13T01:49:54.934Z,12.43
2018-04-13T01:52:22.215Z,11.93
2018-04-13T01:54:49.500Z,17.47
2018-04-13T01:57:16.762Z,13.47
2018-04-13T01:59:44.039Z,13.90
2018-04-13T02:02:11.316Z,11.97
2018-04-13T02:04:38.600Z,13.47
2018-04-13T02:07:05.863Z,14.40
2018-04-13T02:09:33.162Z,18.80
2018-04-13T02:12:00.427Z,24.60
2018-04-13T02:14:27.695Z,15.10
2018-04-13T02:16:54.974Z,14.87
2018-04-13T02:19:22.243Z,14.00
2018-04-13T02:21:49.523Z,18.00
2018-04-13T02:24:16.787Z,11.97
2018-04-13T02:26:44.072Z,16.73
2018-04-13T02:29:11.330Z,13.70
2018-04-13T02:31:38.620Z,15.10
2018-04-13T02:34:05.880Z,19.87
2018-04-13T02:36:33.163Z,15.23
2018-04-13T02:39:00.430Z,13.90
2018-04-13T02:41:27.716Z,13.83
2018-04-13T02:43:54.979Z,14.90
2018-04-13T02:46:22.263Z,15.23
2018-04-13T02:48:49.531Z,15.97
2018-04-13T02:51:16.814Z,16.00
2018-04-13T02:53:44.079Z,13.87
2018-04-13T02:56:11.375Z,14.03
2018-04-13T02:58:38.656Z,13.57
2018-04-13T03:01:05.931Z,13.77
2018-04-13T03:03:33.212Z,15.10
2018-04-13T03:06:00.480Z,13.70
2018-04-13T03:08:27.758Z,22.33
2018-04-13T03:10:55.037Z,18.63
2018-04-13T03:13:22.321Z,15.20
2018-04-13T03:15:49.598Z,14.20
2018-04-13T03:18:16.875Z,12.77
2018-04-13T03:20:44.135Z,17.97
2018-04-13T03:23:11.411Z,13.80
2018-04-13T03:25:38.679Z,15.90
2018-04-13T03:28:05.979Z,16.00
2018-04-13T03:30:33.251Z,16.83
2018-04-13T03:33:00.507Z,16.00
2018-04-13T03:35:27.791Z,18.00
2018-04-13T03:37:55.057Z,16.47
2018-04-13T03:40:22.338Z,22.23
2018-04-13T03:42:49.607Z,17.77
2018-04-13T03:45:16.886Z,18.70
2018-04-13T03:47:44.147Z,18.67
2018-04-13T03:50:11.434Z,18.03
2018-04-13T03:52:38.695Z,22.30
2018-04-13T03:55:05.983Z,27.60
2018-04-13T03:57:33.254Z,23.00
2018-04-13T04:00:00.515Z,23.60
2018-04-13T04:02:27.807Z,20.53
2018-04-13T04:04:55.074Z,19.43
2018-04-13T04:07:22.361Z,20.60
2018-04-13T04:09:49.615Z,21.30
2018-04-13T04:12:16.903Z,21.93
2018-04-13T04:14:44.166Z,24.00
2018-04-13T04:17:11.447Z,20.50
2018-04-13T04:19:44.640Z,24.10
2018-04-13T04:22:17.635Z,24.77
2018-04-13T04:24:50.791Z,22.90
2018-04-13T04:27:18.079Z,25.00
2018-04-13T04:29:45.379Z,24.40
2018-04-13T04:32:12.663Z,25.83
2018-04-13T04:34:39.932Z,23.97
2018-04-13T04:37:07.219Z,28.03
2018-04-13T04:39:34.485Z,26.40
2018-04-13T04:42:01.887Z,31.87
2018-04-13T04:44:29.158Z,29.70
2018-04-13T04:46:56.411Z,23.87
2018-04-13T04:49:23.846Z,24.95
2018-04-13T04:51:51.113Z,26.50
2018-04-13T04:54:18.414Z,29.23
2018-04-13T04:56:45.680Z,24.67
2018-04-13T04:59:12.962Z,25.87
2018-04-13T05:01:40.347Z,25.20
2018-04-13T05:04:07.622Z,27.00
2018-04-13T05:06:34.891Z,25.60
2018-04-13T05:09:02.183Z,25.53
2018-04-13T05:11:29.486Z,25.07
2018-04-13T05:13:56.740Z,25.40
2018-04-13T05:16:24.040Z,23.50
2018-04-13T05:18:51.302Z,22.50
2018-04-13T05:21:18.571Z,25.27
2018-04-13T05:23:45.855Z,25.13
2018-04-13T05:26:13.123Z,27.70
2018-04-13T05:28:40.410Z,27.67
2018-04-13T05:31:07.688Z,27.47
2018-04-13T05:33:34.956Z,27.70
2018-04-13T05:36:02.238Z,29.50
2018-04-13T05:38:29.507Z,29.13
2018-04-13T05:40:56.795Z,30.73
2018-04-13T05:43:24.056Z,30.37
2018-04-13T05:45:51.350Z,30.47
2018-04-13T05:48:18.609Z,28.03
2018-04-13T05:50:45.883Z,31.87
2018-04-13T05:53:13.148Z,36.33
2018-04-13T05:55:40.434Z,36.10
2018-04-13T05:58:07.695Z,29.90
2018-04-13T06:00:34.979Z,34.27
2018-04-13T06:03:02.247Z,29.50
2018-04-13T06:05:29.541Z,28.37
2018-04-13T06:07:56.803Z,28.63
2018-04-13T06:10:24.063Z,29.60
2018-04-13T06:12:51.347Z,29.20
2018-04-13T06:15:18.626Z,27.03
2018-04-13T06:17:45.984Z,31.10
2018-04-13T06:20:13.332Z,26.03
2018-04-13T06:22:40.610Z,29.40
2018-04-13T06:25:07.876Z,29.83
2018-04-13T06:27:35.155Z,28.77
2018-04-13T06:30:02.418Z,24.30
2018-04-13T06:32:29.695Z,25.07
2018-04-13T06:34:56.959Z,25.77
2018-04-13T06:37:24.246Z,33.10
2018-04-13T06:39:51.508Z,26.20
2018-04-13T06:42:18.791Z,25.17
2018-04-13T06:44:46.053Z,26.27
2018-04-13T06:47:13.333Z,24.20
2018-04-13T06:49:40.598Z,26.60
2018-04-13T06:52:07.887Z,23.27
2018-04-13T06:54:35.150Z,21.23
2018-04-13T06:57:02.423Z,25.80
2018-04-13T06:59:29.691Z,22.53
2018-04-13T07:01:56.955Z,21.60
2018-04-13T07:04:24.243Z,21.17
2018-04-13T07:06:51.511Z,26.00
2018-04-13T07:09:18.794Z,26.23
2018-04-13T07:11:46.060Z,20.87
2018-04-13T07:14:13.345Z,24.43
2018-04-13T07:16:40.612Z,23.33
2018-04-13T07:19:07.895Z,25.73
2018-04-13T07:21:35.251Z,26.40
2018-04-13T07:24:02.531Z,20.50
2018-04-13T07:26:29.791Z,23.27
2018-04-13T07:28:57.088Z,20.00
2018-04-13T07:31:24.342Z,26.50
2018-04-13T07:33:51.613Z,21.17
2018-04-13T07:36:18.887Z,23.27
2018-04-13T07:38:46.468Z,17.60
2018-04-13T07:41:13.725Z,20.43
2018-04-13T07:43:40.990Z,20.20
2018-04-13T07:46:08.287Z,17.90
2018-04-13T07:48:35.551Z,20.00
2018-04-13T07:51:02.830Z,28.17
2018-04-13T07:53:30.104Z,28.93
2018-04-13T07:55:57.387Z,29.60
2018-04-13T07:58:24.657Z,28.17
2018-04-13T08:00:51.928Z,28.40
2018-04-13T08:03:19.187Z,26.93
2018-04-13T08:05:46.471Z,31.00
2018-04-13T08:08:13.735Z,32.60
2018-04-13T08:10:41.007Z,26.80
2018-04-13T08:13:08.282Z,28.93
2018-04-13T08:15:35.547Z,28.87
2018-04-13T08:18:02.887Z,25.80
2018-04-13T08:20:30.094Z,30.20
2018-04-13T08:22:57.371Z,32.50
2018-04-13T08:25:24.639Z,29.67
2018-04-13T08:27:51.923Z,30.13
2018-04-13T08:30:19.211Z,29.97
2018-04-13T08:32:46.468Z,32.20
2018-04-13T08:35:13.730Z,31.33
2018-04-13T08:37:41.010Z,32.77
2018-04-13T08:40:08.262Z,33.27
2018-04-13T08:42:35.571Z,32.43
2018-04-13T08:45:02.821Z,29.83
2018-04-13T08:47:30.100Z,33.50
2018-04-13T08:49:57.373Z,31.93
2018-04-13T08:52:24.643Z,33.80
2018-04-13T08:54:51.912Z,34.27
2018-04-13T08:57:19.186Z,34.13
2018-04-13T08:59:46.450Z,32.50
2018-04-13T09:02:13.750Z,38.27
2018-04-13T09:04:41.011Z,37.40
2018-04-13T09:07:08.271Z,33.70
2018-04-13T09:09:35.576Z,30.33
2018-04-13T09:12:02.815Z,31.63
2018-04-13T09:14:35.976Z,31.93
2018-04-13T09:17:03.238Z,37.70
2018-04-13T09:19:30.523Z,35.17
2018-04-13T09:21:57.780Z,42.53
2018-04-13T09:24:25.078Z,34.00
2018-04-13T09:26:52.339Z,36.37
2018-04-13T09:29:19.623Z,32.73
2018-04-13T09:31:46.887Z,41.93
2018-04-13T09:34:14.172Z,34.70
2018-04-13T09:36:41.432Z,41.53
2018-04-13T09:39:08.709Z,35.83
2018-04-13T09:41:35.971Z,38.67
2018-04-13T09:44:03.252Z,36.70
2018-04-13T09:46:30.507Z,39.60
2018-04-13T09:48:57.784Z,45.17
2018-04-13T09:51:25.045Z,37.10
2018-04-13T09:53:52.302Z,45.87
2018-04-13T09:56:19.574Z,39.97
2018-04-13T09:58:46.842Z,44.83
2018-04-13T10:01:15.858Z,47.63
2018-04-13T10:03:48.896Z,47.00
2018-04-13T10:06:16.171Z,38.53
2018-04-13T10:08:43.435Z,37.50
2018-04-13T10:11:10.715Z,39.37
2018-04-13T10:13:37.980Z,38.60
2018-04-13T10:16:05.259Z,37.17
2018-04-13T10:18:32.524Z,38.93
2018-04-13T10:20:59.800Z,36.10
2018-04-13T10:23:27.055Z,34.70
2018-04-13T10:25:54.349Z,40.50
2018-04-13T10:28:21.608Z,36.30
2018-04-13T10:30:48.870Z,30.83
2018-04-13T10:33:16.184Z,34.80
2018-04-13T10:35:43.462Z,33.00
2018-04-13T10:38:10.728Z,40.93
2018-04-13T10:40:37.991Z,36.20
2018-04-13T10:43:05.272Z,34.13
2018-04-13T10:45:32.535Z,35.73
2018-04-13T10:47:59.813Z,34.00
2018-04-13T10:50:27.074Z,36.33
2018-04-13T10:52:54.355Z,33.60
2018-04-13T10:55:21.615Z,34.20
2018-04-13T10:57:48.895Z,31.90
2018-04-13T11:00:16.153Z,34.10
2018-04-13T11:02:43.801Z,30.27
2018-04-13T11:05:11.114Z,26.83
2018-04-13T11:07:38.379Z,31.73
2018-04-13T11:10:05.651Z,32.13
2018-04-13T11:12:32.915Z,29.03
2018-04-13T11:15:00.195Z,33.30
2018-04-13T11:17:27.461Z,41.43
2018-04-13T11:19:54.739Z,32.23
2018-04-13T11:22:22.283Z,34.80
2018-04-13T11:24:49.661Z,31.40
2018-04-13T11:27:16.888Z,31.07
2018-04-13T11:29:44.167Z,36.87
2018-04-13T11:32:11.439Z,44.77
2018-04-13T11:34:38.715Z,44.70
2018-04-13T11:37:05.975Z,49.10
2018-04-13T11:39:33.251Z,47.20
2018-04-13T11:42:00.511Z,45.47
2018-04-13T11:44:27.790Z,57.53
2018-04-13T11:46:55.050Z,50.37
2018-04-13T11:49:22.342Z,48.93
2018-04-13T11:51:49.626Z,55.73
2018-04-13T11:54:16.866Z,65.13
2018-04-13T11:56:44.146Z,62.77
2018-04-13T11:59:11.418Z,68.40
2018-04-13T12:01:38.693Z,66.93
2018-04-13T12:04:05.959Z,65.97
2018-04-13T12:06:33.237Z,70.30
2018-04-13T12:09:00.509Z,62.03
2018-04-13T12:11:27.781Z,64.67
2018-04-13T12:13:55.044Z,62.17
2018-04-13T12:16:22.323Z,64.43
2018-04-13T12:18:49.581Z,63.77
2018-04-13T12:21:16.859Z,59.97
2018-04-13T12:23:44.128Z,60.80
2018-04-13T12:26:11.403Z,57.97
2018-04-13T12:28:38.667Z,62.70
2018-04-13T12:31:05.950Z,62.30
2018-04-13T12:33:33.211Z,58.00
2018-04-13T12:36:00.502Z,55.07
2018-04-13T12:38:27.763Z,56.33
2018-04-13T12:40:55.030Z,47.13
2018-04-13T12:43:22.299Z,45.63
2018-04-13T12:45:49.564Z,46.17
2018-04-13T12:48:16.843Z,40.63
2018-04-13T12:50:44.251Z,34.10
2018-04-13T12:53:11.556Z,31.70
2018-04-13T12:55:38.850Z,31.60
2018-04-13T12:58:06.063Z,34.27
2018-04-13T13:00:33.322Z,33.17
2018-04-13T13:03:00.603Z,33.67
2018-04-13T13:05:27.872Z,27.00
2018-04-13T13:07:55.147Z,23.50
2018-04-13T13:10:22.414Z,27.77
2018-04-13T13:12:49.696Z,29.20
2018-04-13T13:15:16.958Z,24.30
2018-04-13T13:17:44.255Z,28.57
2018-04-13T13:20:11.510Z,29.40
2018-04-13T13:22:38.803Z,21.13
2018-04-13T13:25:06.056Z,24.10
2018-04-13T13:27:33.332Z,24.40
2018-04-13T13:30:00.595Z,21.90
2018-04-13T13:32:27.869Z,24.87
2018-04-13T13:34:55.134Z,19.50
2018-04-13T13:37:22.418Z,19.57
2018-04-13T13:39:49.686Z,24.40
2018-04-13T13:42:16.955Z,21.00
2018-04-13T13:44:44.232Z,23.10
2018-04-13T13:47:11.495Z,22.27
2018-04-13T13:49:38.787Z,23.50
2018-04-13T13:52:06.047Z,20.37
2018-04-13T13:54:33.412Z,20.83
2018-04-13T13:57:00.672Z,19.53
2018-04-13T13:59:27.951Z,19.30
2018-04-13T14:01:55.215Z,20.30
2018-04-13T14:04:22.496Z,23.90
2018-04-13T14:06:49.750Z,22.73
2018-04-13T14:09:17.035Z,20.57
2018-04-13T14:11:44.298Z,19.53
2018-04-13T14:14:11.579Z,17.60
2018-04-13T14:16:38.844Z,15.10
2018-04-13T14:19:06.126Z,13.17
2018-04-13T14:21:33.383Z,16.33
2018-04-13T14:24:00.661Z,14.00
2018-04-13T14:26:27.920Z,15.60
2018-04-13T14:28:55.190Z,26.93
2018-04-13T14:31:22.469Z,14.77
2018-04-13T14:33:49.726Z,16.63
2018-04-13T14:36:16.999Z,13.53
2018-04-13T14:38:44.311Z,16.80
2018-04-13T14:41:11.531Z,10.17
2018-04-13T14:43:38.786Z,13.17
2018-04-13T14:46:06.065Z,11.03
2018-04-13T14:48:33.312Z,11.40
2018-04-13T14:51:00.622Z,9.80
2018-04-13T14:53:27.828Z,9.87
2018-04-13T14:55:55.093Z,8.43
2018-04-13T14:58:22.342Z,8.97
2018-04-13T15:00:49.622Z,10.40
2018-04-13T15:03:16.873Z,5.60
2018-04-13T15:05:44.135Z,6.47
2018-04-13T15:08:11.383Z,6.47
2018-04-13T15:10:38.633Z,5.37
2018-04-13T15:13:05.914Z,5.83
2018-04-13T15:15:33.155Z,3.80
2018-04-13T15:18:00.419Z,6.07
2018-04-13T15:20:27.667Z,6.50
2018-04-13T15:22:54.936Z,5.40
2018-04-13T15:25:22.187Z,7.83
2018-04-13T15:27:49.452Z,8.17
2018-04-13T15:30:16.697Z,4.63
2018-04-13T15:32:43.966Z,5.63
2018-04-13T15:35:11.217Z,4.30
2018-04-13T15:37:38.484Z,5.80
2018-04-13T15:40:05.734Z,4.37
2018-04-13T15:42:32.999Z,7.20
2018-04-13T15:45:00.271Z,6.83
2018-04-13T15:47:27.526Z,5.43
2018-04-13T15:49:54.787Z,5.47
2018-04-13T15:52:22.048Z,10.90
2018-04-13T15:54:49.311Z,5.30
2018-04-13T15:57:16.559Z,4.90
2018-04-13T15:59:43.827Z,5.20
2018-04-13T16:02:11.075Z,5.47
2018-04-13T16:04:38.338Z,4.97
2018-04-13T16:07:05.591Z,6.60
2018-04-13T16:09:32.864Z,6.00
2018-04-13T16:12:00.109Z,5.20
2018-04-13T16:14:27.375Z,8.70
2018-04-13T16:16:54.620Z,6.50
2018-04-13T16:19:21.869Z,8.53
2018-04-13T16:21:49.135Z,6.30
2018-04-13T16:24:16.386Z,7.90
2018-04-13T16:26:43.673Z,5.33
2018-04-13T16:29:10.911Z,5.77
2018-04-13T16:31:38.183Z,10.40
2018-04-13T16:34:05.435Z,5.07
2018-04-13T16:36:32.705Z,5.47
2018-04-13T16:38:59.960Z,6.70
2018-04-13T16:41:27.223Z,7.03
2018-04-13T16:43:54.474Z,5.63
2018-04-13T16:46:21.722Z,6.87
2018-04-13T16:48:48.999Z,5.90
2018-04-13T16:51:16.249Z,7.00
2018-04-13T16:53:43.516Z,7.53
2018-04-13T16:56:10.758Z,9.67
2018-04-13T16:58:38.627Z,9.90
2018-04-13T17:01:06.065Z,12.40
2018-04-13T17:03:33.334Z,8.23
2018-04-13T17:06:00.806Z,8.60
2018-04-13T17:08:28.074Z,10.27
2018-04-13T17:10:55.996Z,9.13
2018-04-13T17:13:23.267Z,11.00
2018-04-13T17:15:50.523Z,12.23
2018-04-13T17:18:17.803Z,9.50
2018-04-13T17:20:45.063Z,14.63
2018-04-13T17:23:12.322Z,13.67
2018-04-13T17:25:39.598Z,13.77
2018-04-13T17:28:06.860Z,15.47
2018-04-13T17:30:34.136Z,12.47
2018-04-13T17:33:01.398Z,14.50
2018-04-13T17:35:28.673Z,15.07
2018-04-13T17:37:55.941Z,11.27
2018-04-13T17:40:23.242Z,14.10
2018-04-13T17:42:50.478Z,21.40
2018-04-13T17:45:17.763Z,17.33
2018-04-13T17:47:45.027Z,13.30
2018-04-13T17:50:12.306Z,12.30
2018-04-13T17:52:39.575Z,16.87
2018-04-13T17:55:06.835Z,17.10
2018-04-13T17:57:34.111Z,13.03
2018-04-13T18:00:02.211Z,20.57
2018-04-13T18:02:29.492Z,14.83
2018-04-13T18:04:56.747Z,15.50
2018-04-13T18:07:24.072Z,13.73
2018-04-13T18:09:51.287Z,20.07
2018-04-13T18:12:18.572Z,16.07
2018-04-13T18:14:45.831Z,18.40
2018-04-13T18:17:13.107Z,16.80
2018-04-13T18:19:40.376Z,18.00
2018-04-13T18:22:07.651Z,22.90
2018-04-13T18:24:34.911Z,32.13
2018-04-13T18:27:02.184Z,17.00
2018-04-13T18:29:29.456Z,19.03
2018-04-13T18:31:56.727Z,21.00
2018-04-13T18:34:23.996Z,20.83
2018-04-13T18:36:51.271Z,17.33
2018-04-13T18:39:18.530Z,29.47
2018-04-13T18:41:45.797Z,20.30
2018-04-13T18:44:14.075Z,20.20
2018-04-13T18:46:42.708Z,22.60
2018-04-13T18:49:09.974Z,23.00
2018-04-13T18:51:37.275Z,23.37
2018-04-13T18:54:04.559Z,22.23
2018-04-13T18:56:31.937Z,26.70
2018-04-13T18:58:59.232Z,21.77
2018-04-13T19:01:26.488Z,26.27
2018-04-13T19:03:53.779Z,26.33
2018-04-13T19:06:21.035Z,28.03
2018-04-13T19:08:48.332Z,30.50
2018-04-13T19:11:15.592Z,25.40
2018-04-13T19:13:42.855Z,23.90
2018-04-13T19:16:10.135Z,21.80
2018-04-13T19:18:37.571Z,23.17
2018-04-13T19:21:04.847Z,22.10
2018-04-13T19:23:32.119Z,22.03
2018-04-13T19:25:59.395Z,25.77
2018-04-13T19:28:26.655Z,21.70
2018-04-13T19:30:53.935Z,22.10
2018-04-13T19:33:21.335Z,20.53
2018-04-13T19:35:50.049Z,18.10
2018-04-13T19:38:18.568Z,21.43
2018-04-13T19:40:45.923Z,20.10
2018-04-13T19:43:13.188Z,23.57
2018-04-13T19:45:40.687Z,18.63
2018-04-13T19:48:07.971Z,18.63
2018-04-13T19:50:35.249Z,17.43
2018-04-13T19:53:02.528Z,17.00
2018-04-13T19:55:29.787Z,19.23
2018-04-13T19:57:57.065Z,15.53
2018-04-13T20:00:24.327Z,16.73
2018-04-13T20:02:51.611Z,16.80
2018-04-13T20:05:18.872Z,16.37
2018-04-13T20:07:46.151Z,19.47
2018-04-13T20:10:13.410Z,15.87
2018-04-13T20:12:40.691Z,17.37
2018-04-13T20:15:07.949Z,16.50
2018-04-13T20:17:35.230Z,19.33
2018-04-13T20:20:02.498Z,22.17
2018-04-13T20:22:29.783Z,17.40
2018-04-13T20:24:57.200Z,17.37
2018-04-13T20:27:26.047Z,27.67
2018-04-13T20:29:54.476Z,20.07
2018-04-13T20:32:22.931Z,21.53
2018-04-13T20:34:50.207Z,19.33
2018-04-13T20:37:17.471Z,20.17
2018-04-13T20:39:44.751Z,24.20
2018-04-13T20:42:12.031Z,18.70
2018-04-13T20:44:39.313Z,20.60
2018-04-13T20:47:06.572Z,20.80
2018-04-13T20:49:33.856Z,19.57
2018-04-13T20:52:01.111Z,17.97
2018-04-13T20:54:28.387Z,17.40
2018-04-13T20:56:55.659Z,19.10
2018-04-13T20:59:22.953Z,18.27
2018-04-13T21:01:50.215Z,15.70
2018-04-13T21:04:17.479Z,15.50
2018-04-13T21:06:44.753Z,20.40
2018-04-13T21:09:12.020Z,16.67
2018-04-13T21:11:39.306Z,14.97
2018-04-13T21:14:06.569Z,13.80
2018-04-13T21:16:33.847Z,14.43
2018-04-13T21:19:01.111Z,12.63
2018-04-13T21:21:28.402Z,13.63
2018-04-13T21:23:55.659Z,11.30
2018-04-13T21:26:22.957Z,14.23
2018-04-13T21:28:50.215Z,12.03
2018-04-13T21:31:17.475Z,14.17
2018-04-13T21:33:44.766Z,15.07
2018-04-13T21:36:12.038Z,15.57
2018-04-13T21:38:39.314Z,13.97
2018-04-13T21:41:06.579Z,18.53
2018-04-13T21:43:33.858Z,17.30
2018-04-13T21:46:01.122Z,20.70
2018-04-13T21:48:28.406Z,18.40
2018-04-13T21:50:55.675Z,22.33
2018-04-13T21:53:22.954Z,22.83
2018-04-13T21:55:50.227Z,26.53
2018-04-13T21:58:17.519Z,25.13
2018-04-13T22:00:44.782Z,30.53
2018-04-13T22:03:12.098Z,26.50
2018-04-13T22:05:39.324Z,30.30
2018-04-13T22:08:06.591Z,31.87
2018-04-13T22:10:33.876Z,35.87
2018-04-13T22:13:07.110Z,39.10
2018-04-13T22:15:34.395Z,33.00
2018-04-13T22:18:01.658Z,34.17
2018-04-13T22:20:28.946Z,36.73
2018-04-13T22:22:56.210Z,37.87
2018-04-13T22:25:23.495Z,38.00
2018-04-13T22:27:50.760Z,43.93
2018-04-13T22:30:18.042Z,38.97
2018-04-13T22:32:45.306Z,35.70
2018-04-13T22:35:12.590Z,40.80
2018-04-13T22:37:39.858Z,39.90
2018-04-13T22:40:07.174Z,35.63
2018-04-13T22:42:34.407Z,38.13
2018-04-13T22:45:01.679Z,36.97
2018-04-13T22:47:28.955Z,37.53
2018-04-13T22:49:56.227Z,38.43
2018-04-13T22:52:23.504Z,50.47
2018-04-13T22:54:50.770Z,55.60
2018-04-13T22:57:18.052Z,40.20
2018-04-13T22:59:45.319Z,40.20
2018-04-13T23:02:12.598Z,40.57
2018-04-13T23:04:39.867Z,34.13
2018-04-13T23:07:07.142Z,40.60
2018-04-13T23:09:34.402Z,41.47
2018-04-13T23:12:01.691Z,32.33
2018-04-13T23:14:28.955Z,38.77
2018-04-13T23:16:56.220Z,42.60
2018-04-13T23:19:23.498Z,34.53
2018-04-13T23:21:50.763Z,35.20
2018-04-13T23:24:18.294Z,32.40
2018-04-13T23:26:45.558Z,32.47
2018-04-13T23:29:12.845Z,35.00
2018-04-13T23:31:40.098Z,32.90
2018-04-13T23:34:07.379Z,29.93
2018-04-13T23:36:34.639Z,32.60
2018-04-13T23:39:01.918Z,29.47
2018-04-13T23:41:29.186Z,24.00
2018-04-13T23:43:56.466Z,24.20
2018-04-13T23:46:23.726Z,26.40
2018-04-13T23:48:51.008Z,26.30
2018-04-13T23:51:18.266Z,24.73
2018-04-13T23:53:45.542Z,21.70
2018-04-13T23:56:12.804Z,26.10
2018-04-13T23:58:40.083Z,22.00
